createdAt,value
2017-10-24T00:01:10.113Z,7.68
2017-10-24T00:03:37.645Z,7.64
2017-10-24T00:06:05.225Z,7.59
2017-10-24T00:08:33.655Z,7.56
2017-10-24T00:11:01.880Z,7.48
2017-10-24T00:13:29.676Z,7.48
2017-10-24T00:15:57.235Z,7.53
2017-10-24T00:18:24.767Z,7.44
2017-10-24T00:20:53.030Z,7.40
2017-10-24T00:23:20.596Z,7.40
2017-10-24T00:25:48.128Z,7.42
2017-10-24T00:28:15.718Z,7.33
2017-10-24T00:30:43.247Z,7.47
2017-10-24T00:33:10.837Z,7.46
2017-10-24T00:35:39.157Z,7.53
2017-10-24T00:38:06.740Z,7.53
2017-10-24T00:40:34.271Z,7.58
2017-10-24T00:43:01.809Z,7.67
2017-10-24T00:45:29.603Z,7.70
2017-10-24T00:47:57.152Z,7.76
2017-10-24T00:50:25.469Z,7.86
2017-10-24T00:52:53.002Z,7.86
2017-10-24T00:55:21.324Z,7.90
2017-10-24T00:57:48.860Z,7.94
2017-10-24T01:00:16.387Z,7.98
2017-10-24T01:02:43.921Z,8.02
2017-10-24T01:05:11.447Z,8.12
2017-10-24T01:07:38.979Z,8.10
2017-10-24T01:10:06.519Z,8.08
2017-10-24T01:12:34.054Z,8.16
2017-10-24T01:15:02.631Z,8.20
2017-10-24T01:17:31.120Z,8.27
2017-10-24T01:19:59.576Z,8.47
2017-10-24T01:22:27.111Z,8.64
2017-10-24T01:24:54.644Z,8.64
2017-10-24T01:27:23.107Z,8.70
2017-10-24T01:29:50.637Z,8.78
2017-10-24T01:32:18.166Z,8.79
2017-10-24T01:34:45.691Z,8.82
2017-10-24T01:37:14.171Z,8.93
2017-10-24T01:39:41.701Z,8.77
2017-10-24T01:42:10.033Z,8.81
2017-10-24T01:44:37.559Z,8.94
2017-10-24T01:47:05.947Z,8.86
2017-10-24T01:49:33.507Z,8.88
2017-10-24T01:52:01.828Z,8.82
2017-10-24T01:54:30.016Z,8.78
2017-10-24T01:56:58.337Z,8.89
2017-10-24T01:59:25.864Z,8.83
2017-10-24T02:01:53.391Z,8.78
2017-10-24T02:04:20.925Z,8.82
2017-10-24T02:06:49.351Z,8.91
2017-10-24T02:09:16.880Z,9.11
2017-10-24T02:11:44.414Z,9.03
2017-10-24T02:14:12.597Z,9.06
2017-10-24T02:16:40.128Z,9.04
2017-10-24T02:19:07.653Z,9.10
2017-10-24T02:21:35.235Z,9.12
2017-10-24T02:24:02.760Z,9.11
2017-10-24T02:26:31.770Z,9.11
2017-10-24T02:29:00.389Z,9.25
2017-10-24T02:31:28.730Z,9.18
2017-10-24T02:33:56.256Z,9.19
2017-10-24T02:36:24.565Z,9.34
2017-10-24T02:38:52.908Z,9.30
2017-10-24T02:41:20.474Z,9.40
2017-10-24T02:43:48.916Z,9.36
2017-10-24T02:46:16.461Z,9.39
2017-10-24T02:48:44.902Z,9.54
2017-10-24T02:51:12.437Z,9.47
2017-10-24T02:53:40.865Z,9.34
2017-10-24T02:56:08.409Z,9.28
2017-10-24T02:58:36.970Z,9.36
2017-10-24T03:01:04.515Z,9.51
2017-10-24T03:03:32.981Z,9.35
2017-10-24T03:06:00.952Z,9.29
2017-10-24T03:08:29.192Z,9.26
2017-10-24T03:10:56.735Z,9.19
2017-10-24T03:13:24.261Z,9.45
2017-10-24T03:15:52.573Z,9.29
2017-10-24T03:18:20.114Z,9.29
2017-10-24T03:20:48.599Z,9.23
2017-10-24T03:23:16.132Z,9.37
2017-10-24T03:25:44.608Z,9.25
2017-10-24T03:28:12.142Z,9.17
2017-10-24T03:30:40.501Z,9.19
2017-10-24T03:33:08.032Z,9.18
2017-10-24T03:35:36.529Z,9.26
2017-10-24T03:38:04.056Z,9.22
2017-10-24T03:40:32.432Z,9.27
2017-10-24T03:43:00.900Z,9.36
2017-10-24T03:45:28.430Z,9.39
2017-10-24T03:47:56.927Z,9.52
2017-10-24T03:50:25.239Z,9.71
2017-10-24T03:52:52.768Z,9.57
2017-10-24T03:55:20.304Z,9.56
2017-10-24T03:57:48.741Z,9.58
2017-10-24T04:00:19.294Z,9.61
2017-10-24T04:02:47.634Z,9.49
2017-10-24T04:05:15.204Z,9.50
2017-10-24T04:07:43.642Z,9.60
2017-10-24T04:10:11.180Z,9.63
2017-10-24T04:12:38.711Z,9.58
2017-10-24T04:15:06.236Z,9.82
2017-10-24T04:17:33.760Z,9.89
2017-10-24T04:20:01.856Z,9.91
2017-10-24T04:22:31.203Z,9.87
2017-10-24T04:24:58.737Z,9.87
2017-10-24T04:27:26.279Z,9.75
2017-10-24T04:29:53.807Z,9.75
2017-10-24T04:32:21.342Z,9.72
2017-10-24T04:34:49.688Z,9.76
2017-10-24T04:37:17.223Z,9.81
2017-10-24T04:39:44.758Z,9.81
2017-10-24T04:42:12.297Z,9.93
2017-10-24T04:44:39.843Z,9.89
2017-10-24T04:47:07.384Z,10.04
2017-10-24T04:49:35.016Z,9.84
2017-10-24T04:52:03.476Z,9.95
2017-10-24T04:54:31.731Z,9.78
2017-10-24T04:57:00.660Z,9.76
2017-10-24T04:59:28.228Z,9.70
2017-10-24T05:01:56.547Z,9.56
2017-10-24T05:04:24.079Z,9.58
2017-10-24T05:06:52.444Z,9.61
2017-10-24T05:09:19.979Z,9.60
2017-10-24T05:11:47.565Z,9.60
2017-10-24T05:14:15.107Z,9.70
2017-10-24T05:16:42.645Z,9.56
2017-10-24T05:19:11.160Z,9.49
2017-10-24T05:21:38.687Z,9.45
2017-10-24T05:24:07.129Z,9.46
2017-10-24T05:26:34.775Z,9.66
2017-10-24T05:29:02.429Z,9.50
2017-10-24T05:31:30.771Z,9.50
2017-10-24T05:33:58.307Z,9.40
2017-10-24T05:36:25.933Z,9.49
2017-10-24T05:38:53.457Z,9.46
2017-10-24T05:41:20.989Z,9.45
2017-10-24T05:43:49.419Z,9.33
2017-10-24T05:46:16.985Z,9.31
2017-10-24T05:48:44.557Z,9.34
2017-10-24T05:51:12.895Z,9.52
2017-10-24T05:53:40.425Z,9.38
2017-10-24T05:56:07.949Z,9.47
2017-10-24T05:58:36.408Z,9.53
2017-10-24T06:01:03.932Z,9.42
2017-10-24T06:03:32.389Z,9.50
2017-10-24T06:06:00.592Z,9.42
2017-10-24T06:08:28.896Z,9.34
2017-10-24T06:10:56.434Z,9.30
2017-10-24T06:13:24.012Z,9.26
2017-10-24T06:15:51.546Z,9.23
2017-10-24T06:18:19.168Z,9.36
2017-10-24T06:20:46.697Z,9.41
2017-10-24T06:23:14.231Z,9.46
2017-10-24T06:25:41.761Z,9.44
2017-10-24T06:28:10.124Z,9.31
2017-10-24T06:30:37.663Z,9.25
2017-10-24T06:33:06.177Z,9.33
2017-10-24T06:35:33.760Z,9.28
2017-10-24T06:38:02.192Z,9.24
2017-10-24T06:40:30.607Z,9.40
2017-10-24T06:42:58.976Z,9.47
2017-10-24T06:45:27.283Z,9.49
2017-10-24T06:47:54.849Z,9.44
2017-10-24T06:50:23.168Z,9.46
2017-10-24T06:52:50.748Z,9.32
2017-10-24T06:55:18.313Z,9.42
2017-10-24T06:57:46.784Z,9.42
2017-10-24T07:00:15.128Z,9.45
2017-10-24T07:02:42.665Z,9.45
2017-10-24T07:05:10.192Z,9.41
2017-10-24T07:07:38.644Z,9.41
2017-10-24T07:10:06.225Z,9.45
2017-10-24T07:12:34.686Z,9.50
2017-10-24T07:15:02.922Z,9.64
2017-10-24T07:17:30.716Z,9.73
2017-10-24T07:19:58.249Z,9.72
2017-10-24T07:22:28.449Z,9.60
2017-10-24T07:24:55.979Z,9.94
2017-10-24T07:27:24.332Z,9.80
2017-10-24T07:29:52.180Z,9.81
2017-10-24T07:32:19.815Z,9.75
2017-10-24T07:34:47.363Z,9.94
2017-10-24T07:37:14.896Z,9.83
2017-10-24T07:39:42.432Z,9.81
2017-10-24T07:42:09.987Z,9.83
2017-10-24T07:44:37.609Z,9.81
2017-10-24T07:47:05.268Z,9.84
2017-10-24T07:49:32.795Z,9.94
2017-10-24T07:52:00.325Z,9.92
2017-10-24T07:54:28.627Z,9.96
2017-10-24T07:56:56.227Z,9.98
2017-10-24T07:59:24.799Z,10.06
2017-10-24T08:01:52.984Z,10.22
2017-10-24T08:04:20.644Z,10.48
2017-10-24T08:06:49.032Z,10.45
2017-10-24T08:09:16.611Z,10.34
2017-10-24T08:11:44.924Z,10.48
2017-10-24T08:14:12.465Z,10.51
2017-10-24T08:16:41.016Z,10.48
2017-10-24T08:19:08.681Z,10.57
2017-10-24T08:21:36.247Z,10.73
2017-10-24T08:24:04.721Z,10.78
2017-10-24T08:26:32.377Z,11.12
2017-10-24T08:29:00.721Z,11.35
2017-10-24T08:31:28.251Z,11.39
2017-10-24T08:33:56.714Z,11.24
2017-10-24T08:36:25.088Z,11.30
2017-10-24T08:38:54.148Z,11.43
2017-10-24T08:41:21.675Z,11.65
2017-10-24T08:43:50.015Z,11.53
2017-10-24T08:46:17.573Z,11.52
2017-10-24T08:48:45.941Z,11.63
2017-10-24T08:51:14.172Z,11.88
2017-10-24T08:53:41.792Z,11.83
2017-10-24T08:56:09.333Z,11.99
2017-10-24T08:58:37.763Z,11.91
2017-10-24T09:01:06.316Z,12.15
2017-10-24T09:03:33.875Z,12.26
2017-10-24T09:06:18.336Z,12.32
2017-10-24T09:12:10.324Z,12.24
2017-10-24T09:14:39.623Z,12.10
2017-10-24T09:20:08.509Z,12.67
2017-10-24T09:22:36.084Z,12.63
2017-10-24T09:25:03.621Z,12.77
2017-10-24T09:27:31.208Z,12.92
2017-10-24T09:29:59.676Z,13.38
2017-10-24T09:32:29.733Z,13.38
2017-10-24T09:34:58.269Z,13.83
2017-10-24T09:37:25.799Z,13.65
2017-10-24T09:39:53.360Z,13.57
2017-10-24T09:42:20.950Z,13.56
2017-10-24T09:44:48.483Z,13.75
2017-10-24T09:47:16.074Z,13.80
2017-10-24T09:49:55.461Z,13.84
2017-10-24T09:52:23.005Z,14.06
2017-10-24T09:54:50.536Z,13.97
2017-10-24T09:57:18.077Z,13.76
2017-10-24T09:59:46.325Z,13.82
2017-10-24T10:02:13.862Z,14.16
2017-10-24T10:04:41.392Z,14.08
2017-10-24T10:07:09.712Z,14.13
2017-10-24T10:09:37.260Z,14.02
2017-10-24T10:12:04.887Z,13.87
2017-10-24T10:14:32.448Z,13.79
2017-10-24T10:16:59.981Z,14.03
2017-10-24T10:19:27.512Z,14.13
2017-10-24T10:21:55.134Z,13.97
2017-10-24T10:24:30.367Z,14.01
2017-10-24T10:26:58.644Z,14.13
2017-10-24T10:29:26.171Z,14.15
2017-10-24T10:31:53.699Z,14.30
2017-10-24T10:34:21.244Z,14.17
2017-10-24T10:36:49.766Z,14.36
2017-10-24T10:39:17.369Z,14.30
2017-10-24T10:41:44.907Z,14.33
2017-10-24T10:44:12.494Z,14.10
2017-10-24T10:46:40.055Z,14.06
2017-10-24T10:49:07.596Z,14.32
2017-10-24T10:51:35.920Z,14.16
2017-10-24T10:54:03.461Z,14.06
2017-10-24T10:56:30.993Z,13.98
2017-10-24T10:58:58.575Z,14.20
2017-10-24T11:01:26.114Z,14.16
2017-10-24T11:03:54.518Z,13.98
2017-10-24T11:06:22.068Z,14.10
2017-10-24T11:08:49.627Z,14.11
2017-10-24T11:11:17.201Z,14.03
2017-10-24T11:13:44.728Z,14.30
2017-10-24T11:16:13.296Z,14.41
2017-10-24T11:18:41.533Z,14.53
2017-10-24T11:21:09.978Z,14.58
2017-10-24T11:23:37.708Z,14.62
2017-10-24T11:26:05.236Z,14.61
2017-10-24T11:28:32.778Z,14.47
2017-10-24T11:31:00.306Z,14.49
2017-10-24T11:33:27.852Z,14.30
2017-10-24T11:35:55.388Z,14.16
2017-10-24T11:38:22.921Z,14.23
2017-10-24T11:40:50.457Z,14.14
2017-10-24T11:43:17.988Z,14.08
2017-10-24T11:45:45.571Z,14.52
2017-10-24T11:48:13.154Z,14.45
2017-10-24T11:50:40.684Z,14.82
2017-10-24T11:53:09.299Z,14.74
2017-10-24T11:55:36.849Z,14.73
2017-10-24T11:58:04.433Z,14.78
2017-10-24T12:00:31.985Z,14.89
2017-10-24T12:02:59.542Z,14.69
2017-10-24T12:05:27.072Z,14.76
2017-10-24T12:07:54.657Z,14.65
2017-10-24T12:10:22.230Z,14.61
2017-10-24T12:12:49.801Z,14.72
2017-10-24T12:15:17.376Z,14.88
2017-10-24T12:17:45.812Z,14.94
2017-10-24T12:20:13.929Z,14.76
2017-10-24T12:22:41.563Z,14.48
2017-10-24T12:25:10.042Z,14.45
2017-10-24T12:27:37.851Z,14.40
2017-10-24T12:30:05.432Z,14.61
2017-10-24T12:32:32.967Z,14.90
2017-10-24T12:35:00.497Z,15.17
2017-10-24T12:37:28.060Z,15.21
2017-10-24T12:39:55.596Z,15.09
2017-10-24T12:42:23.448Z,15.11
2017-10-24T12:45:00.872Z,15.20
2017-10-24T12:47:28.400Z,15.10
2017-10-24T12:53:05.873Z,14.99
2017-10-24T12:55:33.405Z,15.09
2017-10-24T12:58:01.245Z,14.77
2017-10-24T13:00:28.772Z,14.73
2017-10-24T13:02:56.304Z,14.79
2017-10-24T13:05:26.227Z,14.92
2017-10-24T13:07:54.521Z,15.07
2017-10-24T13:10:22.556Z,15.09
2017-10-24T13:12:50.080Z,15.07
2017-10-24T13:15:17.859Z,15.17
2017-10-24T13:17:46.250Z,15.26
2017-10-24T13:20:14.749Z,15.29
2017-10-24T13:22:43.016Z,15.24
2017-10-24T13:25:10.586Z,15.17
2017-10-24T13:27:38.122Z,15.18
2017-10-24T13:30:06.433Z,15.10
2017-10-24T13:32:35.046Z,15.31
2017-10-24T13:35:03.474Z,15.06
2017-10-24T13:37:31.041Z,14.92
2017-10-24T13:39:59.513Z,14.75
2017-10-24T13:42:28.111Z,14.85
2017-10-24T13:44:55.636Z,14.90
2017-10-24T13:47:24.053Z,14.89
2017-10-24T13:49:52.600Z,14.79
2017-10-24T13:52:20.950Z,14.84
2017-10-24T13:54:48.529Z,14.75
2017-10-24T13:57:16.061Z,14.75
2017-10-24T13:59:43.592Z,14.75
2017-10-24T14:02:11.123Z,14.91
2017-10-24T14:04:44.332Z,14.81
2017-10-24T20:44:29.684Z,12.83
2017-10-24T20:46:58.272Z,12.90
2017-10-24T20:49:26.699Z,12.97
2017-10-24T20:51:54.230Z,12.95
2017-10-24T20:54:21.762Z,13.00
2017-10-24T20:56:49.335Z,13.13
2017-10-24T20:59:17.800Z,13.17
2017-10-24T21:01:46.246Z,13.05
2017-10-24T21:04:14.692Z,13.15
2017-10-24T21:06:42.228Z,13.14
2017-10-24T21:09:10.654Z,13.05
2017-10-24T21:11:38.309Z,13.19
2017-10-24T21:14:05.878Z,13.11
2017-10-24T21:16:33.432Z,13.20
2017-10-24T21:19:01.849Z,13.27
2017-10-24T21:21:29.381Z,13.28
2017-10-24T21:23:57.652Z,13.33
2017-10-24T21:26:25.312Z,13.32
2017-10-24T21:28:52.871Z,13.28
2017-10-24T21:31:20.388Z,13.34
2017-10-24T21:33:47.912Z,13.21
2017-10-24T21:36:17.506Z,13.25
2017-10-24T21:38:45.836Z,13.29
2017-10-24T21:41:13.440Z,13.30
2017-10-24T21:43:41.654Z,13.26
2017-10-24T21:46:10.273Z,13.28
2017-10-24T21:48:37.801Z,13.36
2017-10-24T21:51:05.420Z,13.29
2017-10-24T21:53:33.709Z,13.29
2017-10-24T21:56:01.227Z,13.29
2017-10-24T21:58:28.752Z,13.39
2017-10-24T22:00:56.380Z,13.30
2017-10-24T22:03:24.658Z,13.28
2017-10-24T22:05:52.223Z,13.29
2017-10-24T22:08:19.784Z,13.31
2017-10-24T22:10:47.341Z,13.40
2017-10-24T22:13:14.868Z,13.35
2017-10-24T22:15:42.428Z,13.29
2017-10-24T22:18:10.360Z,13.40
2017-10-24T22:20:37.883Z,13.33
2017-10-24T22:23:05.452Z,13.30
2017-10-24T22:25:33.013Z,13.42
2017-10-24T22:28:00.575Z,13.42
2017-10-24T22:30:28.132Z,13.43
2017-10-24T22:32:56.509Z,13.45
2017-10-24T22:35:24.067Z,13.44
2017-10-24T22:37:53.072Z,13.42
2017-10-24T22:40:20.729Z,13.46
2017-10-24T22:42:48.262Z,13.45
2017-10-24T22:45:15.784Z,13.39
2017-10-24T22:47:44.086Z,13.45
2017-10-24T22:50:11.608Z,13.41
2017-10-24T22:52:39.340Z,13.34
2017-10-24T22:55:06.907Z,13.33
2017-10-24T22:57:34.466Z,13.24
2017-10-24T23:00:02.628Z,13.23
2017-10-24T23:02:30.200Z,13.21
2017-10-24T23:04:57.769Z,13.29
2017-10-24T23:07:26.161Z,13.40
2017-10-24T23:09:53.703Z,13.38
2017-10-24T23:12:21.364Z,13.26
2017-10-24T23:14:48.896Z,13.18
2017-10-24T23:17:17.280Z,13.23
2017-10-24T23:19:44.809Z,13.28
2017-10-24T23:22:12.331Z,13.22
2017-10-24T23:24:39.861Z,13.27
2017-10-24T23:27:07.448Z,13.26
2017-10-24T23:29:35.213Z,13.25
2017-10-24T23:32:02.746Z,13.25
2017-10-24T23:34:31.644Z,13.24
2017-10-24T23:36:59.223Z,13.21
2017-10-24T23:39:27.744Z,13.22
2017-10-24T23:41:55.367Z,13.23
2017-10-24T23:44:22.928Z,13.35
2017-10-24T23:46:50.455Z,13.30
2017-10-24T23:49:18.667Z,13.22
2017-10-24T23:51:46.193Z,13.22
2017-10-24T23:54:14.607Z,13.27
2017-10-24T23:56:42.267Z,13.11
2017-10-24T23:59:09.829Z,13.06
